sensor_id;sensor_type;location;lat;lon;timestamp;P1;durP1;ratioP1;P2;durP2;ratioP2
24745;SDS011;12845;52.042;6.838;2023-04-24T00:02:01;7.28;;;4.78;;
24745;SDS011;12845;52.042;6.838;2023-04-24T00:04:26;7.75;;;4.93;;
24745;SDS011;12845;52.042;6.838;2023-04-24T00:06:52;7.25;;;5.32;;
24745;SDS011;12845;52.042;6.838;2023-04-24T00:09:21;8.20;;;6.20;;
24745;SDS011;12845;52.042;6.838;2023-04-24T00:11:47;6.85;;;5.30;;
24745;SDS011;12845;52.042;6.838;2023-04-24T00:14:13;8.45;;;6.10;;
24745;SDS011;12845;52.042;6.838;2023-04-24T00:16:38;9.85;;;6.35;;
24745;SDS011;12845;52.042;6.838;2023-04-24T00:19:03;8.48;;;6.00;;
24745;SDS011;12845;52.042;6.838;2023-04-24T00:21:30;7.72;;;5.43;;
24745;SDS011;12845;52.042;6.838;2023-04-24T00:23:57;8.20;;;5.50;;
24745;SDS011;12845;52.042;6.838;2023-04-24T00:26:23;8.20;;;5.82;;
24745;SDS011;12845;52.042;6.838;2023-04-24T00:28:48;8.80;;;6.47;;
24745;SDS011;12845;52.042;6.838;2023-04-24T00:31:14;10.93;;;6.53;;
24745;SDS011;12845;52.042;6.838;2023-04-24T00:33:39;9.82;;;7.25;;
24745;SDS011;12845;52.042;6.838;2023-04-24T00:36:04;11.07;;;6.45;;
24745;SDS011;12845;52.042;6.838;2023-04-24T00:38:30;9.68;;;6.72;;
24745;SDS011;12845;52.042;6.838;2023-04-24T00:40:56;8.98;;;6.60;;
24745;SDS011;12845;52.042;6.838;2023-04-24T00:43:21;9.50;;;6.15;;
24745;SDS011;12845;52.042;6.838;2023-04-24T00:45:47;10.38;;;6.90;;
24745;SDS011;12845;52.042;6.838;2023-04-24T00:48:12;9.55;;;5.85;;
24745;SDS011;12845;52.042;6.838;2023-04-24T00:50:38;7.63;;;5.78;;
24745;SDS011;12845;52.042;6.838;2023-04-24T00:53:04;7.53;;;5.03;;
24745;SDS011;12845;52.042;6.838;2023-04-24T00:55:29;7.85;;;4.88;;
24745;SDS011;12845;52.042;6.838;2023-04-24T00:57:56;7.03;;;4.25;;
24745;SDS011;12845;52.042;6.838;2023-04-24T01:00:22;7.22;;;5.10;;
24745;SDS011;12845;52.042;6.838;2023-04-24T01:02:47;7.05;;;4.40;;
24745;SDS011;12845;52.042;6.838;2023-04-24T01:05:14;4.90;;;3.63;;
24745;SDS011;12845;52.042;6.838;2023-04-24T01:07:40;6.97;;;3.70;;
24745;SDS011;12845;52.042;6.838;2023-04-24T01:10:09;5.63;;;4.25;;
24745;SDS011;12845;52.042;6.838;2023-04-24T01:12:34;5.97;;;3.50;;
24745;SDS011;12845;52.042;6.838;2023-04-24T01:15:00;5.10;;;3.22;;
24745;SDS011;12845;52.042;6.838;2023-04-24T01:17:26;5.15;;;3.53;;
24745;SDS011;12845;52.042;6.838;2023-04-24T01:19:51;5.10;;;3.42;;
24745;SDS011;12845;52.042;6.838;2023-04-24T01:22:21;7.82;;;3.97;;
24745;SDS011;12845;52.042;6.838;2023-04-24T01:24:47;5.15;;;3.50;;
24745;SDS011;12845;52.042;6.838;2023-04-24T01:27:13;7.35;;;3.88;;
24745;SDS011;12845;52.042;6.838;2023-04-24T01:29:39;6.93;;;5.45;;
24745;SDS011;12845;52.042;6.838;2023-04-24T01:32:04;7.72;;;5.00;;
24745;SDS011;12845;52.042;6.838;2023-04-24T01:34:30;10.02;;;5.93;;
24745;SDS011;12845;52.042;6.838;2023-04-24T01:36:56;10.20;;;7.30;;
24745;SDS011;12845;52.042;6.838;2023-04-24T01:39:21;10.80;;;7.90;;
24745;SDS011;12845;52.042;6.838;2023-04-24T01:41:51;12.35;;;7.97;;
24745;SDS011;12845;52.042;6.838;2023-04-24T01:44:17;9.80;;;7.78;;
24745;SDS011;12845;52.042;6.838;2023-04-24T01:46:43;12.85;;;8.60;;
24745;SDS011;12845;52.042;6.838;2023-04-24T01:49:08;12.57;;;8.98;;
24745;SDS011;12845;52.042;6.838;2023-04-24T01:51:33;11.80;;;9.30;;
24745;SDS011;12845;52.042;6.838;2023-04-24T01:53:59;14.10;;;10.32;;
24745;SDS011;12845;52.042;6.838;2023-04-24T01:56:24;14.30;;;10.23;;
24745;SDS011;12845;52.042;6.838;2023-04-24T01:58:50;16.15;;;11.30;;
24745;SDS011;12845;52.042;6.838;2023-04-24T02:01:21;14.18;;;9.60;;
24745;SDS011;12845;52.042;6.838;2023-04-24T02:03:49;14.70;;;9.85;;
24745;SDS011;12845;52.042;6.838;2023-04-24T02:06:14;13.90;;;10.25;;
24745;SDS011;12845;52.042;6.838;2023-04-24T02:08:40;15.10;;;9.65;;
24745;SDS011;12845;52.042;6.838;2023-04-24T02:11:05;14.00;;;8.90;;
24745;SDS011;12845;52.042;6.838;2023-04-24T02:13:31;20.27;;;10.18;;
24745;SDS011;12845;52.042;6.838;2023-04-24T02:15:57;14.85;;;10.80;;
24745;SDS011;12845;52.042;6.838;2023-04-24T02:18:23;16.08;;;8.82;;
24745;SDS011;12845;52.042;6.838;2023-04-24T02:20:48;16.38;;;9.38;;
24745;SDS011;12845;52.042;6.838;2023-04-24T02:23:14;17.80;;;9.82;;
24745;SDS011;12845;52.042;6.838;2023-04-24T02:25:39;14.57;;;8.75;;
24745;SDS011;12845;52.042;6.838;2023-04-24T02:28:05;17.15;;;9.77;;
24745;SDS011;12845;52.042;6.838;2023-04-24T02:30:30;16.63;;;11.73;;
24745;SDS011;12845;52.042;6.838;2023-04-24T02:32:55;17.58;;;11.15;;
24745;SDS011;12845;52.042;6.838;2023-04-24T02:35:21;13.63;;;10.55;;
24745;SDS011;12845;52.042;6.838;2023-04-24T02:37:46;19.15;;;11.82;;
24745;SDS011;12845;52.042;6.838;2023-04-24T02:40:11;14.88;;;10.57;;
24745;SDS011;12845;52.042;6.838;2023-04-24T02:42:37;22.45;;;12.73;;
24745;SDS011;12845;52.042;6.838;2023-04-24T02:45:03;17.33;;;12.32;;
24745;SDS011;12845;52.042;6.838;2023-04-24T02:47:28;18.92;;;11.25;;
24745;SDS011;12845;52.042;6.838;2023-04-24T02:49:53;19.02;;;13.90;;
24745;SDS011;12845;52.042;6.838;2023-04-24T02:52:19;20.13;;;13.32;;
24745;SDS011;12845;52.042;6.838;2023-04-24T02:54:45;23.27;;;13.63;;
24745;SDS011;12845;52.042;6.838;2023-04-24T02:57:10;21.52;;;14.60;;
24745;SDS011;12845;52.042;6.838;2023-04-24T02:59:35;21.05;;;13.60;;
24745;SDS011;12845;52.042;6.838;2023-04-24T03:02:01;21.38;;;14.48;;
24745;SDS011;12845;52.042;6.838;2023-04-24T03:04:26;18.95;;;11.18;;
24745;SDS011;12845;52.042;6.838;2023-04-24T03:06:52;25.20;;;14.63;;
24745;SDS011;12845;52.042;6.838;2023-04-24T03:09:19;24.05;;;16.02;;
24745;SDS011;12845;52.042;6.838;2023-04-24T03:11:48;21.17;;;13.30;;
24745;SDS011;12845;52.042;6.838;2023-04-24T03:14:14;24.42;;;15.10;;
24745;SDS011;12845;52.042;6.838;2023-04-24T03:16:40;23.52;;;15.48;;
24745;SDS011;12845;52.042;6.838;2023-04-24T03:19:05;24.77;;;16.50;;
24745;SDS011;12845;52.042;6.838;2023-04-24T03:21:30;28.02;;;15.50;;
24745;SDS011;12845;52.042;6.838;2023-04-24T03:23:56;27.27;;;16.33;;
24745;SDS011;12845;52.042;6.838;2023-04-24T03:26:21;27.45;;;17.77;;
24745;SDS011;12845;52.042;6.838;2023-04-24T03:28:47;26.95;;;14.57;;
24745;SDS011;12845;52.042;6.838;2023-04-24T03:31:12;28.38;;;17.88;;
24745;SDS011;12845;52.042;6.838;2023-04-24T03:33:37;30.48;;;15.80;;
24745;SDS011;12845;52.042;6.838;2023-04-24T03:36:03;29.52;;;19.65;;
24745;SDS011;12845;52.042;6.838;2023-04-24T03:38:29;30.02;;;18.75;;
24745;SDS011;12845;52.042;6.838;2023-04-24T03:40:55;31.38;;;19.42;;
24745;SDS011;12845;52.042;6.838;2023-04-24T03:43:20;32.53;;;21.38;;
24745;SDS011;12845;52.042;6.838;2023-04-24T03:45:46;30.50;;;17.95;;
24745;SDS011;12845;52.042;6.838;2023-04-24T03:48:11;30.80;;;17.52;;
24745;SDS011;12845;52.042;6.838;2023-04-24T03:50:36;27.30;;;17.70;;
24745;SDS011;12845;52.042;6.838;2023-04-24T03:53:02;28.27;;;17.58;;
24745;SDS011;12845;52.042;6.838;2023-04-24T03:55:27;27.45;;;18.58;;
24745;SDS011;12845;52.042;6.838;2023-04-24T03:57:52;29.42;;;18.45;;
24745;SDS011;12845;52.042;6.838;2023-04-24T04:00:18;28.73;;;19.73;;
24745;SDS011;12845;52.042;6.838;2023-04-24T04:02:43;31.52;;;19.48;;
24745;SDS011;12845;52.042;6.838;2023-04-24T04:05:09;31.77;;;18.02;;
24745;SDS011;12845;52.042;6.838;2023-04-24T04:07:34;28.85;;;18.00;;
24745;SDS011;12845;52.042;6.838;2023-04-24T04:09:59;27.55;;;16.27;;
24745;SDS011;12845;52.042;6.838;2023-04-24T04:12:25;26.02;;;17.58;;
24745;SDS011;12845;52.042;6.838;2023-04-24T04:14:50;29.55;;;20.02;;
24745;SDS011;12845;52.042;6.838;2023-04-24T04:17:16;29.73;;;21.00;;
24745;SDS011;12845;52.042;6.838;2023-04-24T04:19:41;28.70;;;18.65;;
24745;SDS011;12845;52.042;6.838;2023-04-24T04:22:06;29.17;;;19.38;;
24745;SDS011;12845;52.042;6.838;2023-04-24T04:24:33;29.30;;;18.13;;
24745;SDS011;12845;52.042;6.838;2023-04-24T04:26:58;26.83;;;18.35;;
24745;SDS011;12845;52.042;6.838;2023-04-24T04:29:25;26.42;;;18.35;;
24745;SDS011;12845;52.042;6.838;2023-04-24T04:31:50;29.48;;;17.15;;
24745;SDS011;12845;52.042;6.838;2023-04-24T04:34:16;30.83;;;17.55;;
24745;SDS011;12845;52.042;6.838;2023-04-24T04:36:42;28.70;;;17.52;;
24745;SDS011;12845;52.042;6.838;2023-04-24T04:39:08;27.67;;;18.45;;
24745;SDS011;12845;52.042;6.838;2023-04-24T04:41:33;26.92;;;17.45;;
24745;SDS011;12845;52.042;6.838;2023-04-24T04:44:00;33.80;;;20.77;;
24745;SDS011;12845;52.042;6.838;2023-04-24T04:46:26;33.30;;;20.60;;
24745;SDS011;12845;52.042;6.838;2023-04-24T04:48:52;29.45;;;19.55;;
24745;SDS011;12845;52.042;6.838;2023-04-24T04:51:18;32.28;;;20.60;;
24745;SDS011;12845;52.042;6.838;2023-04-24T04:53:43;31.48;;;20.30;;
24745;SDS011;12845;52.042;6.838;2023-04-24T04:56:08;28.48;;;18.88;;
24745;SDS011;12845;52.042;6.838;2023-04-24T04:58:34;34.42;;;18.63;;
24745;SDS011;12845;52.042;6.838;2023-04-24T05:00:59;31.42;;;20.33;;
24745;SDS011;12845;52.042;6.838;2023-04-24T05:03:25;30.77;;;19.27;;
24745;SDS011;12845;52.042;6.838;2023-04-24T05:05:50;32.58;;;19.33;;
24745;SDS011;12845;52.042;6.838;2023-04-24T05:08:15;35.10;;;22.00;;
24745;SDS011;12845;52.042;6.838;2023-04-24T05:10:41;31.90;;;22.25;;
24745;SDS011;12845;52.042;6.838;2023-04-24T05:13:06;27.92;;;18.33;;
24745;SDS011;12845;52.042;6.838;2023-04-24T05:15:32;29.05;;;18.38;;
24745;SDS011;12845;52.042;6.838;2023-04-24T05:17:57;29.65;;;19.85;;
24745;SDS011;12845;52.042;6.838;2023-04-24T05:20:22;30.88;;;19.30;;
24745;SDS011;12845;52.042;6.838;2023-04-24T05:22:48;36.10;;;24.63;;
24745;SDS011;12845;52.042;6.838;2023-04-24T05:25:13;31.98;;;20.90;;
24745;SDS011;12845;52.042;6.838;2023-04-24T05:27:39;33.75;;;20.95;;
24745;SDS011;12845;52.042;6.838;2023-04-24T05:30:05;35.63;;;21.55;;
24745;SDS011;12845;52.042;6.838;2023-04-24T05:32:31;33.45;;;20.85;;
24745;SDS011;12845;52.042;6.838;2023-04-24T05:34:56;36.75;;;22.35;;
24745;SDS011;12845;52.042;6.838;2023-04-24T05:37:21;36.05;;;23.60;;
24745;SDS011;12845;52.042;6.838;2023-04-24T05:39:47;33.08;;;23.48;;
24745;SDS011;12845;52.042;6.838;2023-04-24T05:42:12;32.95;;;21.75;;
24745;SDS011;12845;52.042;6.838;2023-04-24T05:44:37;30.15;;;18.75;;
24745;SDS011;12845;52.042;6.838;2023-04-24T05:47:03;29.73;;;18.20;;
24745;SDS011;12845;52.042;6.838;2023-04-24T05:49:28;31.10;;;17.85;;
24745;SDS011;12845;52.042;6.838;2023-04-24T05:51:53;35.55;;;24.42;;
24745;SDS011;12845;52.042;6.838;2023-04-24T05:54:19;32.72;;;20.55;;
24745;SDS011;12845;52.042;6.838;2023-04-24T05:56:44;31.00;;;21.05;;
24745;SDS011;12845;52.042;6.838;2023-04-24T05:59:10;34.05;;;22.30;;
24745;SDS011;12845;52.042;6.838;2023-04-24T06:01:35;33.50;;;23.13;;
24745;SDS011;12845;52.042;6.838;2023-04-24T06:04:01;33.45;;;19.75;;
24745;SDS011;12845;52.042;6.838;2023-04-24T06:06:27;36.78;;;22.20;;
24745;SDS011;12845;52.042;6.838;2023-04-24T06:08:53;29.98;;;19.08;;
24745;SDS011;12845;52.042;6.838;2023-04-24T06:11:19;30.38;;;21.25;;
24745;SDS011;12845;52.042;6.838;2023-04-24T06:13:44;34.42;;;22.63;;
24745;SDS011;12845;52.042;6.838;2023-04-24T06:16:10;38.28;;;19.38;;
24745;SDS011;12845;52.042;6.838;2023-04-24T06:18:36;29.98;;;19.50;;
24745;SDS011;12845;52.042;6.838;2023-04-24T06:21:01;30.67;;;17.85;;
24745;SDS011;12845;52.042;6.838;2023-04-24T06:23:27;36.65;;;22.75;;
24745;SDS011;12845;52.042;6.838;2023-04-24T06:25:52;29.05;;;18.38;;
24745;SDS011;12845;52.042;6.838;2023-04-24T06:28:17;31.40;;;18.33;;
24745;SDS011;12845;52.042;6.838;2023-04-24T06:30:43;28.83;;;17.38;;
24745;SDS011;12845;52.042;6.838;2023-04-24T06:33:08;30.35;;;19.45;;
24745;SDS011;12845;52.042;6.838;2023-04-24T06:35:35;25.90;;;16.88;;
24745;SDS011;12845;52.042;6.838;2023-04-24T06:38:01;26.48;;;19.08;;
24745;SDS011;12845;52.042;6.838;2023-04-24T06:40:26;24.92;;;17.77;;
24745;SDS011;12845;52.042;6.838;2023-04-24T06:42:51;21.67;;;15.93;;
24745;SDS011;12845;52.042;6.838;2023-04-24T06:45:17;25.58;;;15.93;;
24745;SDS011;12845;52.042;6.838;2023-04-24T06:47:42;23.80;;;16.45;;
24745;SDS011;12845;52.042;6.838;2023-04-24T06:50:07;22.15;;;15.98;;
24745;SDS011;12845;52.042;6.838;2023-04-24T06:52:33;23.15;;;15.18;;
24745;SDS011;12845;52.042;6.838;2023-04-24T06:55:02;20.38;;;13.23;;
24745;SDS011;12845;52.042;6.838;2023-04-24T06:57:28;22.33;;;14.70;;
24745;SDS011;12845;52.042;6.838;2023-04-24T06:59:54;19.35;;;13.20;;
24745;SDS011;12845;52.042;6.838;2023-04-24T07:02:20;22.02;;;13.93;;
24745;SDS011;12845;52.042;6.838;2023-04-24T07:04:45;24.63;;;14.30;;
24745;SDS011;12845;52.042;6.838;2023-04-24T07:07:11;21.20;;;14.25;;
24745;SDS011;12845;52.042;6.838;2023-04-24T07:09:39;19.27;;;14.32;;
24745;SDS011;12845;52.042;6.838;2023-04-24T07:12:06;22.92;;;15.48;;
24745;SDS011;12845;52.042;6.838;2023-04-24T07:14:32;22.13;;;15.30;;
24745;SDS011;12845;52.042;6.838;2023-04-24T07:16:58;17.40;;;13.45;;
24745;SDS011;12845;52.042;6.838;2023-04-24T07:19:23;18.30;;;12.63;;
24745;SDS011;12845;52.042;6.838;2023-04-24T07:21:48;18.35;;;12.73;;
24745;SDS011;12845;52.042;6.838;2023-04-24T07:24:14;19.38;;;13.55;;
24745;SDS011;12845;52.042;6.838;2023-04-24T07:26:40;15.45;;;10.57;;
24745;SDS011;12845;52.042;6.838;2023-04-24T07:29:05;15.63;;;9.32;;
24745;SDS011;12845;52.042;6.838;2023-04-24T07:31:31;16.40;;;10.88;;
24745;SDS011;12845;52.042;6.838;2023-04-24T07:33:57;14.07;;;10.40;;
24745;SDS011;12845;52.042;6.838;2023-04-24T07:36:23;13.85;;;10.55;;
24745;SDS011;12845;52.042;6.838;2023-04-24T07:38:49;13.35;;;10.02;;
24745;SDS011;12845;52.042;6.838;2023-04-24T07:41:15;13.27;;;9.80;;
24745;SDS011;12845;52.042;6.838;2023-04-24T07:43:40;12.27;;;9.60;;
24745;SDS011;12845;52.042;6.838;2023-04-24T07:46:07;14.02;;;9.93;;
24745;SDS011;12845;52.042;6.838;2023-04-24T07:48:33;10.40;;;7.72;;
24745;SDS011;12845;52.042;6.838;2023-04-24T07:50:58;14.35;;;10.23;;
24745;SDS011;12845;52.042;6.838;2023-04-24T07:53:24;13.52;;;10.90;;
24745;SDS011;12845;52.042;6.838;2023-04-24T07:55:49;12.27;;;9.20;;
24745;SDS011;12845;52.042;6.838;2023-04-24T07:58:15;11.98;;;7.97;;
24745;SDS011;12845;52.042;6.838;2023-04-24T08:00:40;12.18;;;9.75;;
24745;SDS011;12845;52.042;6.838;2023-04-24T08:03:05;13.90;;;9.27;;
24745;SDS011;12845;52.042;6.838;2023-04-24T08:05:31;14.73;;;9.43;;
24745;SDS011;12845;52.042;6.838;2023-04-24T08:07:56;16.67;;;11.32;;
24745;SDS011;12845;52.042;6.838;2023-04-24T08:10:22;17.05;;;11.07;;
24745;SDS011;12845;52.042;6.838;2023-04-24T08:12:47;12.95;;;9.27;;
24745;SDS011;12845;52.042;6.838;2023-04-24T08:15:13;16.52;;;11.88;;
24745;SDS011;12845;52.042;6.838;2023-04-24T08:17:38;14.82;;;11.25;;
24745;SDS011;12845;52.042;6.838;2023-04-24T08:20:04;16.80;;;11.85;;
24745;SDS011;12845;52.042;6.838;2023-04-24T08:22:30;15.20;;;9.88;;
24745;SDS011;12845;52.042;6.838;2023-04-24T08:24:56;16.45;;;11.45;;
24745;SDS011;12845;52.042;6.838;2023-04-24T08:27:23;18.15;;;13.20;;
24745;SDS011;12845;52.042;6.838;2023-04-24T08:29:49;16.83;;;11.02;;
24745;SDS011;12845;52.042;6.838;2023-04-24T08:32:15;12.82;;;8.90;;
24745;SDS011;12845;52.042;6.838;2023-04-24T08:34:40;15.27;;;10.65;;
24745;SDS011;12845;52.042;6.838;2023-04-24T08:37:05;14.25;;;11.18;;
24745;SDS011;12845;52.042;6.838;2023-04-24T08:39:31;13.18;;;7.18;;
24745;SDS011;12845;52.042;6.838;2023-04-24T08:41:56;12.18;;;8.10;;
24745;SDS011;12845;52.042;6.838;2023-04-24T08:44:30;12.45;;;8.18;;
24745;SDS011;12845;52.042;6.838;2023-04-24T08:46:57;12.73;;;8.02;;
24745;SDS011;12845;52.042;6.838;2023-04-24T08:49:23;11.68;;;8.95;;
24745;SDS011;12845;52.042;6.838;2023-04-24T08:51:49;13.32;;;8.55;;
24745;SDS011;12845;52.042;6.838;2023-04-24T08:54:15;12.82;;;7.43;;
24745;SDS011;12845;52.042;6.838;2023-04-24T08:56:43;13.82;;;8.55;;
24745;SDS011;12845;52.042;6.838;2023-04-24T08:59:09;12.15;;;8.38;;
24745;SDS011;12845;52.042;6.838;2023-04-24T09:01:36;15.23;;;10.23;;
24745;SDS011;12845;52.042;6.838;2023-04-24T09:04:03;14.50;;;9.15;;
24745;SDS011;12845;52.042;6.838;2023-04-24T09:06:29;17.33;;;11.90;;
24745;SDS011;12845;52.042;6.838;2023-04-24T09:08:57;14.63;;;9.80;;
24745;SDS011;12845;52.042;6.838;2023-04-24T09:11:29;11.13;;;7.25;;
24745;SDS011;12845;52.042;6.838;2023-04-24T09:13:55;9.80;;;6.55;;
24745;SDS011;12845;52.042;6.838;2023-04-24T09:16:21;8.23;;;4.90;;
24745;SDS011;12845;52.042;6.838;2023-04-24T09:18:49;9.20;;;6.95;;
24745;SDS011;12845;52.042;6.838;2023-04-24T09:21:14;9.27;;;5.47;;
24745;SDS011;12845;52.042;6.838;2023-04-24T09:23:40;8.63;;;6.93;;
24745;SDS011;12845;52.042;6.838;2023-04-24T09:26:05;10.02;;;6.72;;
24745;SDS011;12845;52.042;6.838;2023-04-24T09:33:31;11.45;;;8.73;;
24745;SDS011;12845;52.042;6.838;2023-04-24T09:35:56;11.75;;;8.38;;
24745;SDS011;12845;52.042;6.838;2023-04-24T09:38:32;16.42;;;10.50;;
24745;SDS011;12845;52.042;6.838;2023-04-24T09:41:02;13.65;;;10.60;;
24745;SDS011;12845;52.042;6.838;2023-04-24T09:43:29;17.77;;;11.90;;
24745;SDS011;12845;52.042;6.838;2023-04-24T09:45:56;17.75;;;12.75;;
24745;SDS011;12845;52.042;6.838;2023-04-24T09:48:30;21.08;;;13.05;;
24745;SDS011;12845;52.042;6.838;2023-04-24T09:50:56;16.13;;;11.70;;
24745;SDS011;12845;52.042;6.838;2023-04-24T09:53:25;15.13;;;11.82;;
24745;SDS011;12845;52.042;6.838;2023-04-24T09:55:51;20.10;;;12.88;;
24745;SDS011;12845;52.042;6.838;2023-04-24T09:58:18;15.02;;;10.45;;
24745;SDS011;12845;52.042;6.838;2023-04-24T10:00:49;17.25;;;12.82;;
24745;SDS011;12845;52.042;6.838;2023-04-24T10:03:15;16.45;;;9.73;;
24745;SDS011;12845;52.042;6.838;2023-04-24T10:05:43;19.02;;;11.48;;
24745;SDS011;12845;52.042;6.838;2023-04-24T10:08:11;19.45;;;12.18;;
24745;SDS011;12845;52.042;6.838;2023-04-24T10:10:39;17.13;;;12.05;;
24745;SDS011;12845;52.042;6.838;2023-04-24T10:13:05;19.13;;;13.07;;
24745;SDS011;12845;52.042;6.838;2023-04-24T10:15:32;17.38;;;11.52;;
24745;SDS011;12845;52.042;6.838;2023-04-24T10:17:58;21.80;;;13.30;;
24745;SDS011;12845;52.042;6.838;2023-04-24T10:20:25;19.48;;;12.98;;
24745;SDS011;12845;52.042;6.838;2023-04-24T10:22:53;22.10;;;14.15;;
24745;SDS011;12845;52.042;6.838;2023-04-24T10:25:19;18.00;;;13.02;;
24745;SDS011;12845;52.042;6.838;2023-04-24T10:27:47;20.08;;;13.57;;
24745;SDS011;12845;52.042;6.838;2023-04-24T10:30:14;20.95;;;13.43;;
24745;SDS011;12845;52.042;6.838;2023-04-24T10:32:40;18.33;;;13.27;;
24745;SDS011;12845;52.042;6.838;2023-04-24T10:35:06;18.25;;;10.55;;
24745;SDS011;12845;52.042;6.838;2023-04-24T10:37:40;17.98;;;13.20;;
24745;SDS011;12845;52.042;6.838;2023-04-24T10:40:09;13.35;;;9.95;;
24745;SDS011;12845;52.042;6.838;2023-04-24T10:42:39;13.13;;;7.40;;
24745;SDS011;12845;52.042;6.838;2023-04-24T10:45:06;9.60;;;6.38;;
24745;SDS011;12845;52.042;6.838;2023-04-24T10:47:40;8.57;;;5.40;;
24745;SDS011;12845;52.042;6.838;2023-04-24T10:50:12;8.95;;;4.90;;
24745;SDS011;12845;52.042;6.838;2023-04-24T10:52:44;7.13;;;5.57;;
24745;SDS011;12845;52.042;6.838;2023-04-24T10:55:10;10.07;;;5.18;;
24745;SDS011;12845;52.042;6.838;2023-04-24T10:57:37;9.25;;;5.18;;
24745;SDS011;12845;52.042;6.838;2023-04-24T11:00:19;12.70;;;7.20;;
24745;SDS011;12845;52.042;6.838;2023-04-24T11:02:46;17.10;;;7.32;;
24745;SDS011;12845;52.042;6.838;2023-04-24T11:05:17;14.55;;;7.75;;
24745;SDS011;12845;52.042;6.838;2023-04-24T11:10:34;15.80;;;9.02;;
24745;SDS011;12845;52.042;6.838;2023-04-24T11:13:03;21.00;;;11.10;;
24745;SDS011;12845;52.042;6.838;2023-04-24T11:15:28;19.27;;;10.23;;
24745;SDS011;12845;52.042;6.838;2023-04-24T11:17:55;23.52;;;12.32;;
24745;SDS011;12845;52.042;6.838;2023-04-24T11:20:22;21.15;;;10.57;;
24745;SDS011;12845;52.042;6.838;2023-04-24T11:22:48;15.98;;;8.23;;
24745;SDS011;12845;52.042;6.838;2023-04-24T11:25:19;22.10;;;9.55;;
24745;SDS011;12845;52.042;6.838;2023-04-24T11:27:47;12.55;;;6.82;;
24745;SDS011;12845;52.042;6.838;2023-04-24T11:30:16;13.18;;;6.90;;
24745;SDS011;12845;52.042;6.838;2023-04-24T11:32:43;11.80;;;5.43;;
24745;SDS011;12845;52.042;6.838;2023-04-24T11:35:17;12.05;;;5.63;;
24745;SDS011;12845;52.042;6.838;2023-04-24T11:37:50;11.40;;;6.80;;
24745;SDS011;12845;52.042;6.838;2023-04-24T11:40:18;12.00;;;5.80;;
24745;SDS011;12845;52.042;6.838;2023-04-24T11:42:46;11.88;;;6.30;;
24745;SDS011;12845;52.042;6.838;2023-04-24T11:45:16;9.90;;;6.00;;
24745;SDS011;12845;52.042;6.838;2023-04-24T11:47:44;13.93;;;6.43;;
24745;SDS011;12845;52.042;6.838;2023-04-24T11:50:14;12.95;;;5.50;;
24745;SDS011;12845;52.042;6.838;2023-04-24T11:52:41;12.88;;;6.72;;
24745;SDS011;12845;52.042;6.838;2023-04-24T11:57:40;10.48;;;4.78;;
24745;SDS011;12845;52.042;6.838;2023-04-24T12:00:14;12.07;;;6.35;;
24745;SDS011;12845;52.042;6.838;2023-04-24T12:02:41;9.82;;;4.00;;
24745;SDS011;12845;52.042;6.838;2023-04-24T12:05:06;7.72;;;4.05;;
24745;SDS011;12845;52.042;6.838;2023-04-24T12:07:39;7.70;;;4.10;;
24745;SDS011;12845;52.042;6.838;2023-04-24T12:10:07;9.48;;;3.35;;
24745;SDS011;12845;52.042;6.838;2023-04-24T12:12:34;8.80;;;3.85;;
24745;SDS011;12845;52.042;6.838;2023-04-24T12:15:00;7.75;;;3.90;;
24745;SDS011;12845;52.042;6.838;2023-04-24T12:17:28;11.68;;;4.47;;
24745;SDS011;12845;52.042;6.838;2023-04-24T12:20:03;10.90;;;3.13;;
24745;SDS011;12845;52.042;6.838;2023-04-24T12:22:43;12.10;;;4.00;;
24745;SDS011;12845;52.042;6.838;2023-04-24T12:25:14;9.00;;;3.60;;
24745;SDS011;12845;52.042;6.838;2023-04-24T12:27:40;9.55;;;4.28;;
24745;SDS011;12845;52.042;6.838;2023-04-24T12:30:09;5.63;;;2.50;;
24745;SDS011;12845;52.042;6.838;2023-04-24T12:32:40;8.98;;;2.92;;
24745;SDS011;12845;52.042;6.838;2023-04-24T12:35:07;8.55;;;2.50;;
24745;SDS011;12845;52.042;6.838;2023-04-24T12:37:33;4.90;;;2.83;;
24745;SDS011;12845;52.042;6.838;2023-04-24T12:42:32;7.13;;;2.50;;
24745;SDS011;12845;52.042;6.838;2023-04-24T12:44:58;8.30;;;2.50;;
24745;SDS011;12845;52.042;6.838;2023-04-24T12:47:25;7.30;;;2.20;;
24745;SDS011;12845;52.042;6.838;2023-04-24T12:49:53;5.35;;;2.00;;
24745;SDS011;12845;52.042;6.838;2023-04-24T12:52:20;5.90;;;2.25;;
24745;SDS011;12845;52.042;6.838;2023-04-24T12:54:49;7.07;;;2.22;;
24745;SDS011;12845;52.042;6.838;2023-04-24T12:57:15;6.95;;;2.28;;
24745;SDS011;12845;52.042;6.838;2023-04-24T12:59:41;7.47;;;2.30;;
24745;SDS011;12845;52.042;6.838;2023-04-24T13:02:07;5.68;;;2.60;;
24745;SDS011;12845;52.042;6.838;2023-04-24T13:04:33;5.10;;;2.30;;
24745;SDS011;12845;52.042;6.838;2023-04-24T13:06:59;6.78;;;2.13;;
24745;SDS011;12845;52.042;6.838;2023-04-24T13:09:24;4.75;;;2.10;;
24745;SDS011;12845;52.042;6.838;2023-04-24T13:11:49;6.88;;;1.90;;
24745;SDS011;12845;52.042;6.838;2023-04-24T13:14:15;4.35;;;1.95;;
24745;SDS011;12845;52.042;6.838;2023-04-24T13:16:41;3.83;;;1.60;;
24745;SDS011;12845;52.042;6.838;2023-04-24T13:19:06;3.47;;;2.00;;
24745;SDS011;12845;52.042;6.838;2023-04-24T13:21:31;3.45;;;1.70;;
24745;SDS011;12845;52.042;6.838;2023-04-24T13:23:57;4.35;;;1.33;;
24745;SDS011;12845;52.042;6.838;2023-04-24T13:26:22;4.28;;;1.40;;
24745;SDS011;12845;52.042;6.838;2023-04-24T13:28:48;5.00;;;1.52;;
24745;SDS011;12845;52.042;6.838;2023-04-24T13:31:13;4.70;;;1.70;;
24745;SDS011;12845;52.042;6.838;2023-04-24T13:33:39;3.50;;;1.45;;
24745;SDS011;12845;52.042;6.838;2023-04-24T13:36:05;3.90;;;1.98;;
24745;SDS011;12845;52.042;6.838;2023-04-24T13:38:31;3.85;;;1.58;;
24745;SDS011;12845;52.042;6.838;2023-04-24T13:40:56;5.45;;;2.05;;
24745;SDS011;12845;52.042;6.838;2023-04-24T13:43:21;2.92;;;1.30;;
24745;SDS011;12845;52.042;6.838;2023-04-24T13:45:47;4.07;;;1.75;;
24745;SDS011;12845;52.042;6.838;2023-04-24T13:48:12;3.00;;;1.63;;
24745;SDS011;12845;52.042;6.838;2023-04-24T13:50:40;5.38;;;1.73;;
24745;SDS011;12845;52.042;6.838;2023-04-24T13:53:06;5.50;;;2.00;;
24745;SDS011;12845;52.042;6.838;2023-04-24T13:55:31;3.35;;;1.70;;
24745;SDS011;12845;52.042;6.838;2023-04-24T13:57:57;2.88;;;1.48;;
24745;SDS011;12845;52.042;6.838;2023-04-24T14:00:22;4.82;;;1.60;;
24745;SDS011;12845;52.042;6.838;2023-04-24T14:02:48;3.78;;;1.83;;
24745;SDS011;12845;52.042;6.838;2023-04-24T14:05:13;7.20;;;1.80;;
24745;SDS011;12845;52.042;6.838;2023-04-24T14:07:40;4.70;;;1.90;;
24745;SDS011;12845;52.042;6.838;2023-04-24T14:10:06;3.97;;;1.98;;
24745;SDS011;12845;52.042;6.838;2023-04-24T14:12:32;5.30;;;2.00;;
24745;SDS011;12845;52.042;6.838;2023-04-24T14:14:57;5.45;;;1.40;;
24745;SDS011;12845;52.042;6.838;2023-04-24T14:17:22;3.92;;;2.22;;
24745;SDS011;12845;52.042;6.838;2023-04-24T14:19:48;6.00;;;1.88;;
24745;SDS011;12845;52.042;6.838;2023-04-24T14:22:13;5.18;;;1.80;;
24745;SDS011;12845;52.042;6.838;2023-04-24T14:24:38;4.60;;;2.20;;
24745;SDS011;12845;52.042;6.838;2023-04-24T14:27:04;3.25;;;1.42;;
24745;SDS011;12845;52.042;6.838;2023-04-24T14:29:29;2.88;;;1.27;;
24745;SDS011;12845;52.042;6.838;2023-04-24T14:31:55;5.95;;;1.58;;
24745;SDS011;12845;52.042;6.838;2023-04-24T14:34:20;4.35;;;1.20;;
24745;SDS011;12845;52.042;6.838;2023-04-24T14:36:46;4.32;;;1.40;;
24745;SDS011;12845;52.042;6.838;2023-04-24T14:39:11;6.03;;;1.63;;